sensor_id;sensor_type;location;lat;lon;timestamp;P1;P2;P0
69349;PMS5003;64554;43.452;4.934;2023-06-04T00:01:48;19.25;19.25;12.00
69349;PMS5003;64554;43.452;4.934;2023-06-04T00:04:14;16.80;16.80;11.60
69349;PMS5003;64554;43.452;4.934;2023-06-04T00:06:41;18.00;16.80;12.80
69349;PMS5003;64554;43.452;4.934;2023-06-04T00:09:08;17.00;17.00;11.33
69349;PMS5003;64554;43.452;4.934;2023-06-04T00:11:34;15.40;15.40;10.40
69349;PMS5003;64554;43.452;4.934;2023-06-04T00:14:02;20.00;19.00;10.50
69349;PMS5003;64554;43.452;4.934;2023-06-04T00:16:29;19.75;17.75;13.00
69349;PMS5003;64554;43.452;4.934;2023-06-04T00:18:56;17.80;15.40;10.60
69349;PMS5003;64554;43.452;4.934;2023-06-04T00:21:22;18.20;16.40;10.40
69349;PMS5003;64554;43.452;4.934;2023-06-04T00:23:49;24.40;22.60;13.00
69349;PMS5003;64554;43.452;4.934;2023-06-04T00:26:15;14.50;14.50;9.50
69349;PMS5003;64554;43.452;4.934;2023-06-04T00:28:42;20.00;19.00;13.00
69349;PMS5003;64554;43.452;4.934;2023-06-04T00:31:08;18.00;18.00;12.00
69349;PMS5003;64554;43.452;4.934;2023-06-04T00:33:36;16.40;15.40;10.60
69349;PMS5003;64554;43.452;4.934;2023-06-04T00:36:03;15.60;15.40;12.40
69349;PMS5003;64554;43.452;4.934;2023-06-04T00:38:29;18.75;18.75;10.75
69349;PMS5003;64554;43.452;4.934;2023-06-04T00:40:56;19.75;19.25;10.25
69349;PMS5003;64554;43.452;4.934;2023-06-04T00:43:22;19.00;18.00;13.40
69349;PMS5003;64554;43.452;4.934;2023-06-04T00:45:52;19.00;19.00;11.00
69349;PMS5003;64554;43.452;4.934;2023-06-04T00:48:18;17.80;17.80;10.40
69349;PMS5003;64554;43.452;4.934;2023-06-04T00:50:46;17.20;16.00;11.80
69349;PMS5003;64554;43.452;4.934;2023-06-04T00:53:13;17.25;17.25;11.50
69349;PMS5003;64554;43.452;4.934;2023-06-04T00:55:39;16.20;16.20;11.00
69349;PMS5003;64554;43.452;4.934;2023-06-04T00:58:06;23.75;22.00;12.25
69349;PMS5003;64554;43.452;4.934;2023-06-04T01:00:33;16.75;16.75;10.75
69349;PMS5003;64554;43.452;4.934;2023-06-04T01:02:59;16.00;16.00;11.80
69349;PMS5003;64554;43.452;4.934;2023-06-04T01:05:43;18.00;18.00;10.00
69349;PMS5003;64554;43.452;4.934;2023-06-04T01:08:14;18.50;16.50;12.00
69349;PMS5003;64554;43.452;4.934;2023-06-04T01:10:53;17.60;16.40;11.60
69349;PMS5003;64554;43.452;4.934;2023-06-04T01:13:21;15.20;15.20;11.20
69349;PMS5003;64554;43.452;4.934;2023-06-04T01:15:48;18.50;16.00;11.50
69349;PMS5003;64554;43.452;4.934;2023-06-04T01:18:15;18.80;18.40;12.40
69349;PMS5003;64554;43.452;4.934;2023-06-04T01:20:57;18.00;18.00;13.00
69349;PMS5003;64554;43.452;4.934;2023-06-04T01:25:53;16.00;16.00;11.00
69349;PMS5003;64554;43.452;4.934;2023-06-04T01:28:20;16.20;16.20;10.60
69349;PMS5003;64554;43.452;4.934;2023-06-04T01:30:47;15.00;14.20;9.40
69349;PMS5003;64554;43.452;4.934;2023-06-04T01:33:15;16.60;16.60;11.60
69349;PMS5003;64554;43.452;4.934;2023-06-04T01:35:42;16.00;16.00;10.40
69349;PMS5003;64554;43.452;4.934;2023-06-04T01:38:09;15.00;15.00;11.00
69349;PMS5003;64554;43.452;4.934;2023-06-04T01:40:36;16.60;16.60;13.00
69349;PMS5003;64554;43.452;4.934;2023-06-04T01:43:03;18.80;18.80;12.00
69349;PMS5003;64554;43.452;4.934;2023-06-04T01:45:30;20.20;20.00;13.20
69349;PMS5003;64554;43.452;4.934;2023-06-04T01:47:56;19.40;19.40;11.60
69349;PMS5003;64554;43.452;4.934;2023-06-04T01:50:23;21.75;21.00;12.75
69349;PMS5003;64554;43.452;4.934;2023-06-04T01:52:50;19.50;19.50;13.00
69349;PMS5003;64554;43.452;4.934;2023-06-04T01:55:16;17.40;17.40;12.40
69349;PMS5003;64554;43.452;4.934;2023-06-04T01:57:43;19.25;19.00;12.25
69349;PMS5003;64554;43.452;4.934;2023-06-04T02:00:10;20.25;18.25;13.25
69349;PMS5003;64554;43.452;4.934;2023-06-04T02:02:38;16.60;16.60;11.60
69349;PMS5003;64554;43.452;4.934;2023-06-04T02:05:05;21.25;19.25;12.00
69349;PMS5003;64554;43.452;4.934;2023-06-04T02:07:35;15.25;14.75;9.75
69349;PMS5003;64554;43.452;4.934;2023-06-04T02:10:11;17.00;16.00;11.20
69349;PMS5003;64554;43.452;4.934;2023-06-04T02:12:39;17.25;15.75;11.25
69349;PMS5003;64554;43.452;4.934;2023-06-04T02:15:06;19.00;17.40;13.00
69349;PMS5003;64554;43.452;4.934;2023-06-04T02:17:33;18.75;18.75;11.75
69349;PMS5003;64554;43.452;4.934;2023-06-04T02:20:04;16.80;16.80;11.40
69349;PMS5003;64554;43.452;4.934;2023-06-04T02:22:31;20.20;20.20;13.20
69349;PMS5003;64554;43.452;4.934;2023-06-04T02:24:57;21.00;21.00;12.60
69349;PMS5003;64554;43.452;4.934;2023-06-04T02:27:24;19.40;19.40;12.20
69349;PMS5003;64554;43.452;4.934;2023-06-04T02:29:50;24.75;24.25;13.25
69349;PMS5003;64554;43.452;4.934;2023-06-04T02:32:17;19.80;19.00;13.20
69349;PMS5003;64554;43.452;4.934;2023-06-04T02:34:44;17.20;15.80;11.60
69349;PMS5003;64554;43.452;4.934;2023-06-04T02:37:10;19.40;18.40;12.80
69349;PMS5003;64554;43.452;4.934;2023-06-04T02:39:37;18.00;18.00;12.20
69349;PMS5003;64554;43.452;4.934;2023-06-04T02:42:04;16.40;16.00;12.00
69349;PMS5003;64554;43.452;4.934;2023-06-04T02:44:30;16.00;15.00;12.00
69349;PMS5003;64554;43.452;4.934;2023-06-04T02:46:57;19.00;18.20;12.80
69349;PMS5003;64554;43.452;4.934;2023-06-04T02:49:24;21.33;18.00;12.00
69349;PMS5003;64554;43.452;4.934;2023-06-04T02:51:51;17.75;17.75;12.25
69349;PMS5003;64554;43.452;4.934;2023-06-04T02:54:17;22.00;21.00;14.00
69349;PMS5003;64554;43.452;4.934;2023-06-04T02:56:44;21.50;21.50;13.75
69349;PMS5003;64554;43.452;4.934;2023-06-04T02:59:10;19.50;18.00;12.00
69349;PMS5003;64554;43.452;4.934;2023-06-04T03:01:39;20.50;20.50;12.50
69349;PMS5003;64554;43.452;4.934;2023-06-04T03:04:06;18.40;18.40;13.80
69349;PMS5003;64554;43.452;4.934;2023-06-04T03:06:36;17.75;16.00;12.50
69349;PMS5003;64554;43.452;4.934;2023-06-04T03:09:05;20.60;20.60;13.00
69349;PMS5003;64554;43.452;4.934;2023-06-04T03:11:33;17.40;17.40;12.00
69349;PMS5003;64554;43.452;4.934;2023-06-04T03:13:59;18.00;18.00;12.00
69349;PMS5003;64554;43.452;4.934;2023-06-04T03:16:26;20.50;19.50;12.50
69349;PMS5003;64554;43.452;4.934;2023-06-04T03:18:53;25.50;25.25;14.25
69349;PMS5003;64554;43.452;4.934;2023-06-04T03:21:19;19.00;19.00;13.00
69349;PMS5003;64554;43.452;4.934;2023-06-04T03:23:46;21.20;19.00;11.00
69349;PMS5003;64554;43.452;4.934;2023-06-04T03:26:12;21.00;21.00;14.00
69349;PMS5003;64554;43.452;4.934;2023-06-04T03:28:39;17.00;17.00;12.00
69349;PMS5003;64554;43.452;4.934;2023-06-04T03:31:06;25.50;25.50;14.50
69349;PMS5003;64554;43.452;4.934;2023-06-04T03:33:33;17.40;16.40;12.80
69349;PMS5003;64554;43.452;4.934;2023-06-04T03:36:00;21.75;19.75;12.25
69349;PMS5003;64554;43.452;4.934;2023-06-04T03:38:26;19.50;17.00;11.50
69349;PMS5003;64554;43.452;4.934;2023-06-04T03:40:53;20.40;20.40;14.40
69349;PMS5003;64554;43.452;4.934;2023-06-04T03:43:20;19.25;19.25;14.25
69349;PMS5003;64554;43.452;4.934;2023-06-04T03:45:46;20.40;20.40;11.20
69349;PMS5003;64554;43.452;4.934;2023-06-04T03:48:13;19.00;19.00;12.80
69349;PMS5003;64554;43.452;4.934;2023-06-04T03:50:39;15.60;15.60;12.20
69349;PMS5003;64554;43.452;4.934;2023-06-04T03:53:06;20.80;19.20;12.20
69349;PMS5003;64554;43.452;4.934;2023-06-04T03:55:33;18.80;18.80;13.20
69349;PMS5003;64554;43.452;4.934;2023-06-04T03:58:00;19.25;18.25;13.00
69349;PMS5003;64554;43.452;4.934;2023-06-04T04:00:27;25.00;22.25;13.25
69349;PMS5003;64554;43.452;4.934;2023-06-04T04:02:53;15.75;15.75;11.75
69349;PMS5003;64554;43.452;4.934;2023-06-04T04:05:20;19.80;19.00;14.00
69349;PMS5003;64554;43.452;4.934;2023-06-04T04:07:46;17.00;17.00;12.50
69349;PMS5003;64554;43.452;4.934;2023-06-04T04:10:13;20.50;19.25;12.25
69349;PMS5003;64554;43.452;4.934;2023-06-04T04:12:40;16.60;15.60;11.40
69349;PMS5003;64554;43.452;4.934;2023-06-04T04:15:06;19.00;17.00;12.00
69349;PMS5003;64554;43.452;4.934;2023-06-04T04:17:33;18.00;18.00;12.50
69349;PMS5003;64554;43.452;4.934;2023-06-04T04:20:00;24.33;21.33;11.67
69349;PMS5003;64554;43.452;4.934;2023-06-04T04:22:27;19.20;17.60;11.00
69349;PMS5003;64554;43.452;4.934;2023-06-04T04:24:54;25.25;24.25;13.50
69349;PMS5003;64554;43.452;4.934;2023-06-04T04:27:20;17.75;17.75;12.00
69349;PMS5003;64554;43.452;4.934;2023-06-04T04:29:47;18.60;17.00;11.40
69349;PMS5003;64554;43.452;4.934;2023-06-04T04:32:14;19.20;16.00;12.00
69349;PMS5003;64554;43.452;4.934;2023-06-04T04:34:53;22.00;19.40;12.60
69349;PMS5003;64554;43.452;4.934;2023-06-04T04:37:21;20.00;17.25;12.25
69349;PMS5003;64554;43.452;4.934;2023-06-04T04:39:48;16.00;15.75;11.75
69349;PMS5003;64554;43.452;4.934;2023-06-04T04:42:18;19.00;19.00;12.20
69349;PMS5003;64554;43.452;4.934;2023-06-04T04:44:45;19.00;17.75;12.25
69349;PMS5003;64554;43.452;4.934;2023-06-04T04:47:14;18.60;18.00;13.00
69349;PMS5003;64554;43.452;4.934;2023-06-04T04:49:41;17.00;17.00;11.60
69349;PMS5003;64554;43.452;4.934;2023-06-04T04:52:08;17.40;17.40;13.00
69349;PMS5003;64554;43.452;4.934;2023-06-04T04:54:34;18.40;18.40;12.40
69349;PMS5003;64554;43.452;4.934;2023-06-04T04:57:01;17.60;16.60;10.60
69349;PMS5003;64554;43.452;4.934;2023-06-04T04:59:39;14.50;14.00;11.50
69349;PMS5003;64554;43.452;4.934;2023-06-04T05:02:06;15.75;15.00;11.50
69349;PMS5003;64554;43.452;4.934;2023-06-04T05:04:32;15.75;15.75;11.00
69349;PMS5003;64554;43.452;4.934;2023-06-04T05:06:59;16.00;16.00;11.00
69349;PMS5003;64554;43.452;4.934;2023-06-04T05:09:26;22.80;22.80;11.80
69349;PMS5003;64554;43.452;4.934;2023-06-04T05:11:52;16.60;15.60;11.20
69349;PMS5003;64554;43.452;4.934;2023-06-04T05:14:19;19.00;18.00;12.00
69349;PMS5003;64554;43.452;4.934;2023-06-04T05:16:46;14.00;14.00;10.00
69349;PMS5003;64554;43.452;4.934;2023-06-04T05:19:18;15.00;15.00;10.75
69349;PMS5003;64554;43.452;4.934;2023-06-04T05:21:44;16.00;15.80;8.80
69349;PMS5003;64554;43.452;4.934;2023-06-04T05:24:11;19.25;18.25;12.25
69349;PMS5003;64554;43.452;4.934;2023-06-04T05:26:37;21.20;20.20;10.60
69349;PMS5003;64554;43.452;4.934;2023-06-04T05:29:06;15.00;13.75;7.75
69349;PMS5003;64554;43.452;4.934;2023-06-04T05:31:33;19.00;19.00;12.75
69349;PMS5003;64554;43.452;4.934;2023-06-04T05:34:02;20.50;19.50;12.75
69349;PMS5003;64554;43.452;4.934;2023-06-04T05:36:30;16.40;16.40;11.40
69349;PMS5003;64554;43.452;4.934;2023-06-04T05:38:57;18.40;17.40;11.20
69349;PMS5003;64554;43.452;4.934;2023-06-04T05:41:24;16.40;14.00;11.00
69349;PMS5003;64554;43.452;4.934;2023-06-04T05:43:50;18.40;16.40;11.40
69349;PMS5003;64554;43.452;4.934;2023-06-04T05:46:17;16.75;15.25;12.00
69349;PMS5003;64554;43.452;4.934;2023-06-04T05:48:44;14.00;14.00;10.40
69349;PMS5003;64554;43.452;4.934;2023-06-04T05:51:12;15.00;14.00;10.80
69349;PMS5003;64554;43.452;4.934;2023-06-04T05:53:39;17.50;17.00;12.00
69349;PMS5003;64554;43.452;4.934;2023-06-04T05:56:06;17.75;16.25;10.75
69349;PMS5003;64554;43.452;4.934;2023-06-04T05:58:33;17.00;16.00;11.00
69349;PMS5003;64554;43.452;4.934;2023-06-04T06:01:00;13.00;13.00;9.60
69349;PMS5003;64554;43.452;4.934;2023-06-04T06:03:27;13.80;12.60;8.60
69349;PMS5003;64554;43.452;4.934;2023-06-04T06:05:54;16.25;16.25;10.75
69349;PMS5003;64554;43.452;4.934;2023-06-04T06:08:21;13.40;13.40;9.80
69349;PMS5003;64554;43.452;4.934;2023-06-04T06:10:47;13.00;13.00;10.00
69349;PMS5003;64554;43.452;4.934;2023-06-04T06:13:14;13.00;13.00;9.40
69349;PMS5003;64554;43.452;4.934;2023-06-04T06:15:41;14.80;14.60;9.60
69349;PMS5003;64554;43.452;4.934;2023-06-04T06:18:08;12.00;12.00;8.00
69349;PMS5003;64554;43.452;4.934;2023-06-04T06:20:35;12.60;12.60;9.20
69349;PMS5003;64554;43.452;4.934;2023-06-04T06:23:07;15.50;15.50;11.25
69349;PMS5003;64554;43.452;4.934;2023-06-04T06:25:34;15.40;14.40;10.00
69349;PMS5003;64554;43.452;4.934;2023-06-04T06:28:00;13.00;12.00;9.00
69349;PMS5003;64554;43.452;4.934;2023-06-04T06:30:27;13.25;13.25;9.25
69349;PMS5003;64554;43.452;4.934;2023-06-04T06:32:54;14.00;14.00;9.00
69349;PMS5003;64554;43.452;4.934;2023-06-04T06:35:22;12.25;10.75;8.00
69349;PMS5003;64554;43.452;4.934;2023-06-04T06:37:48;16.00;16.00;10.00
69349;PMS5003;64554;43.452;4.934;2023-06-04T06:40:15;15.20;13.40;8.40
69349;PMS5003;64554;43.452;4.934;2023-06-04T06:42:41;13.25;12.25;9.75
69349;PMS5003;64554;43.452;4.934;2023-06-04T06:45:08;12.00;11.40;8.40
69349;PMS5003;64554;43.452;4.934;2023-06-04T06:47:35;12.80;12.40;9.00
69349;PMS5003;64554;43.452;4.934;2023-06-04T06:50:02;13.20;13.20;10.00
69349;PMS5003;64554;43.452;4.934;2023-06-04T06:52:28;14.00;14.00;10.00
69349;PMS5003;64554;43.452;4.934;2023-06-04T06:54:58;12.00;12.00;8.00
69349;PMS5003;64554;43.452;4.934;2023-06-04T06:57:24;10.50;10.50;8.00
69349;PMS5003;64554;43.452;4.934;2023-06-04T06:59:51;16.50;16.50;7.25
69349;PMS5003;64554;43.452;4.934;2023-06-04T07:02:20;12.50;12.50;10.25
69349;PMS5003;64554;43.452;4.934;2023-06-04T07:04:47;12.40;10.40;7.40
69349;PMS5003;64554;43.452;4.934;2023-06-04T07:07:13;12.00;12.00;9.00
69349;PMS5003;64554;43.452;4.934;2023-06-04T07:09:43;13.00;11.00;8.00
69349;PMS5003;64554;43.452;4.934;2023-06-04T07:12:10;11.40;11.40;8.00
69349;PMS5003;64554;43.452;4.934;2023-06-04T07:14:36;10.50;10.50;8.00
69349;PMS5003;64554;43.452;4.934;2023-06-04T07:17:03;11.60;10.00;8.00
69349;PMS5003;64554;43.452;4.934;2023-06-04T07:19:30;10.75;10.25;7.75
69349;PMS5003;64554;43.452;4.934;2023-06-04T07:21:56;9.40;9.40;7.40
69349;PMS5003;64554;43.452;4.934;2023-06-04T07:24:23;13.00;13.00;8.40
69349;PMS5003;64554;43.452;4.934;2023-06-04T07:26:49;9.75;8.75;6.75
69349;PMS5003;64554;43.452;4.934;2023-06-04T07:29:16;11.60;11.60;8.00
69349;PMS5003;64554;43.452;4.934;2023-06-04T07:31:42;11.80;10.80;7.80
69349;PMS5003;64554;43.452;4.934;2023-06-04T07:34:09;9.00;9.00;6.75
69349;PMS5003;64554;43.452;4.934;2023-06-04T07:36:36;10.00;10.00;8.00
69349;PMS5003;64554;43.452;4.934;2023-06-04T07:39:03;10.67;10.67;7.00
69349;PMS5003;64554;43.452;4.934;2023-06-04T07:41:30;11.00;11.00;8.00
69349;PMS5003;64554;43.452;4.934;2023-06-04T07:43:57;9.50;9.50;7.50
69349;PMS5003;64554;43.452;4.934;2023-06-04T07:46:24;14.25;14.25;10.00
69349;PMS5003;64554;43.452;4.934;2023-06-04T07:48:50;16.00;15.00;9.00
69349;PMS5003;64554;43.452;4.934;2023-06-04T07:51:17;14.00;12.00;8.50
69349;PMS5003;64554;43.452;4.934;2023-06-04T07:53:45;10.00;10.00;6.00
69349;PMS5003;64554;43.452;4.934;2023-06-04T07:56:12;10.00;10.00;6.50
69349;PMS5003;64554;43.452;4.934;2023-06-04T07:58:39;13.00;13.00;8.00
69349;PMS5003;64554;43.452;4.934;2023-06-04T08:01:05;12.75;12.75;8.00
69349;PMS5003;64554;43.452;4.934;2023-06-04T08:03:33;12.00;10.40;7.00
69349;PMS5003;64554;43.452;4.934;2023-06-04T08:06:00;11.00;11.00;7.00
69349;PMS5003;64554;43.452;4.934;2023-06-04T08:08:29;11.00;11.00;7.00
69349;PMS5003;64554;43.452;4.934;2023-06-04T08:10:56;15.00;15.00;10.75
69349;PMS5003;64554;43.452;4.934;2023-06-04T08:13:22;13.00;12.00;9.50
69349;PMS5003;64554;43.452;4.934;2023-06-04T08:15:49;12.00;9.60;7.60
69349;PMS5003;64554;43.452;4.934;2023-06-04T08:18:16;10.00;10.00;6.75
69349;PMS5003;64554;43.452;4.934;2023-06-04T08:20:42;17.00;15.50;7.75
69349;PMS5003;64554;43.452;4.934;2023-06-04T08:23:09;13.80;13.80;9.40
69349;PMS5003;64554;43.452;4.934;2023-06-04T08:25:35;13.00;10.00;7.00
69349;PMS5003;64554;43.452;4.934;2023-06-04T08:28:02;12.00;12.00;8.80
69349;PMS5003;64554;43.452;4.934;2023-06-04T08:30:29;12.00;10.00;7.00
69349;PMS5003;64554;43.452;4.934;2023-06-04T08:32:55;16.00;15.00;7.50
69349;PMS5003;64554;43.452;4.934;2023-06-04T08:35:22;7.40;7.40;6.00
69349;PMS5003;64554;43.452;4.934;2023-06-04T08:37:49;13.25;12.25;8.25
69349;PMS5003;64554;43.452;4.934;2023-06-04T08:40:15;14.00;14.00;8.50
69349;PMS5003;64554;43.452;4.934;2023-06-04T08:42:43;11.50;11.50;7.00
69349;PMS5003;64554;43.452;4.934;2023-06-04T08:45:11;13.20;11.80;6.80
69349;PMS5003;64554;43.452;4.934;2023-06-04T08:47:48;15.25;15.25;6.00
69349;PMS5003;64554;43.452;4.934;2023-06-04T08:50:16;12.60;10.20;8.20
69349;PMS5003;64554;43.452;4.934;2023-06-04T08:52:43;9.00;9.00;6.00
69349;PMS5003;64554;43.452;4.934;2023-06-04T08:55:11;11.00;11.00;7.40
69349;PMS5003;64554;43.452;4.934;2023-06-04T08:57:38;10.00;9.75;7.75
69349;PMS5003;64554;43.452;4.934;2023-06-04T09:00:06;14.50;13.75;8.00
69349;PMS5003;64554;43.452;4.934;2023-06-04T09:02:36;29.33;27.00;14.33
69349;PMS5003;64554;43.452;4.934;2023-06-04T09:05:07;15.50;15.50;10.50
69349;PMS5003;64554;43.452;4.934;2023-06-04T09:07:36;8.20;8.20;6.00
69349;PMS5003;64554;43.452;4.934;2023-06-04T09:10:05;10.00;10.00;7.00
69349;PMS5003;64554;43.452;4.934;2023-06-04T09:12:42;9.75;8.75;6.00
69349;PMS5003;64554;43.452;4.934;2023-06-04T09:15:09;9.60;9.60;7.00
69349;PMS5003;64554;43.452;4.934;2023-06-04T09:17:36;9.00;9.00;5.50
69349;PMS5003;64554;43.452;4.934;2023-06-04T09:20:03;7.25;5.75;4.25
69349;PMS5003;64554;43.452;4.934;2023-06-04T09:22:35;7.80;7.80;5.80
69349;PMS5003;64554;43.452;4.934;2023-06-04T09:25:05;7.25;6.25;4.25
69349;PMS5003;64554;43.452;4.934;2023-06-04T09:27:37;9.25;9.25;6.25
69349;PMS5003;64554;43.452;4.934;2023-06-04T09:30:04;8.00;8.00;6.00
69349;PMS5003;64554;43.452;4.934;2023-06-04T09:32:32;8.00;8.00;5.80
69349;PMS5003;64554;43.452;4.934;2023-06-04T09:37:39;10.00;10.00;7.00
69349;PMS5003;64554;43.452;4.934;2023-06-04T09:40:06;9.25;7.25;5.25
69349;PMS5003;64554;43.452;4.934;2023-06-04T09:42:46;7.20;7.20;4.60
69349;PMS5003;64554;43.452;4.934;2023-06-04T09:45:26;10.40;10.40;7.60
69349;PMS5003;64554;43.452;4.934;2023-06-04T09:47:52;9.00;9.00;6.00
69349;PMS5003;64554;43.452;4.934;2023-06-04T09:50:24;11.60;11.60;6.60
69349;PMS5003;64554;43.452;4.934;2023-06-04T09:52:51;11.25;11.25;8.00
69349;PMS5003;64554;43.452;4.934;2023-06-04T09:55:18;12.60;11.60;7.60
69349;PMS5003;64554;43.452;4.934;2023-06-04T09:57:46;13.40;10.60;7.40
69349;PMS5003;64554;43.452;4.934;2023-06-04T10:00:17;9.00;9.00;7.25
69349;PMS5003;64554;43.452;4.934;2023-06-04T10:02:44;10.60;9.60;8.00
69349;PMS5003;64554;43.452;4.934;2023-06-04T10:05:13;11.50;11.50;7.50
69349;PMS5003;64554;43.452;4.934;2023-06-04T10:07:42;10.60;10.60;7.20
69349;PMS5003;64554;43.452;4.934;2023-06-04T10:10:11;10.50;10.50;6.50
69349;PMS5003;64554;43.452;4.934;2023-06-04T10:12:37;10.80;8.20;5.80
69349;PMS5003;64554;43.452;4.934;2023-06-04T10:15:11;10.80;9.40;6.00
69349;PMS5003;64554;43.452;4.934;2023-06-04T10:17:38;11.00;11.00;7.00
69349;PMS5003;64554;43.452;4.934;2023-06-04T10:20:06;11.75;10.75;6.50
69349;PMS5003;64554;43.452;4.934;2023-06-04T10:22:35;10.40;9.00;7.00
69349;PMS5003;64554;43.452;4.934;2023-06-04T10:25:01;10.60;10.60;6.60
69349;PMS5003;64554;43.452;4.934;2023-06-04T10:27:30;9.00;9.00;5.50
69349;PMS5003;64554;43.452;4.934;2023-06-04T10:29:57;10.50;10.50;7.50
69349;PMS5003;64554;43.452;4.934;2023-06-04T10:32:27;10.20;8.60;6.20
69349;PMS5003;64554;43.452;4.934;2023-06-04T10:34:54;10.50;9.50;7.00
69349;PMS5003;64554;43.452;4.934;2023-06-04T10:37:21;14.00;8.60;5.60
69349;PMS5003;64554;43.452;4.934;2023-06-04T10:39:51;11.75;11.75;8.00
69349;PMS5003;64554;43.452;4.934;2023-06-04T10:42:19;12.00;12.00;8.50
69349;PMS5003;64554;43.452;4.934;2023-06-04T10:44:48;13.60;13.00;9.00
69349;PMS5003;64554;43.452;4.934;2023-06-04T10:47:22;12.40;12.40;9.40
69349;PMS5003;64554;43.452;4.934;2023-06-04T10:49:50;15.00;14.00;9.00
69349;PMS5003;64554;43.452;4.934;2023-06-04T10:52:17;18.50;17.25;9.25
69349;PMS5003;64554;43.452;4.934;2023-06-04T10:54:45;14.60;12.40;9.40
69349;PMS5003;64554;43.452;4.934;2023-06-04T10:59:38;12.00;12.00;8.00
69349;PMS5003;64554;43.452;4.934;2023-06-04T11:02:05;11.25;11.25;8.75
69349;PMS5003;64554;43.452;4.934;2023-06-04T11:04:32;15.00;13.50;8.50
69349;PMS5003;64554;43.452;4.934;2023-06-04T11:07:05;17.00;17.00;10.50
69349;PMS5003;64554;43.452;4.934;2023-06-04T11:09:36;15.00;15.00;10.00
69349;PMS5003;64554;43.452;4.934;2023-06-04T11:12:06;16.80;16.00;11.20
69349;PMS5003;64554;43.452;4.934;2023-06-04T11:14:33;16.25;16.25;12.00
69349;PMS5003;64554;43.452;4.934;2023-06-04T11:17:12;16.50;15.50;9.75
69349;PMS5003;64554;43.452;4.934;2023-06-04T11:19:38;16.00;15.00;9.75
69349;PMS5003;64554;43.452;4.934;2023-06-04T11:22:05;14.25;14.25;10.00
69349;PMS5003;64554;43.452;4.934;2023-06-04T11:24:32;16.75;15.25;12.25
69349;PMS5003;64554;43.452;4.934;2023-06-04T11:26:59;15.75;14.00;8.75
69349;PMS5003;64554;43.452;4.934;2023-06-04T11:29:53;14.00;14.00;9.60
69349;PMS5003;64554;43.452;4.934;2023-06-04T11:32:23;14.00;14.00;10.20
69349;PMS5003;64554;43.452;4.934;2023-06-04T11:34:50;14.00;14.00;9.50
69349;PMS5003;64554;43.452;4.934;2023-06-04T11:37:17;19.50;18.00;11.00
69349;PMS5003;64554;43.452;4.934;2023-06-04T11:39:44;19.80;19.00;11.20
69349;PMS5003;64554;43.452;4.934;2023-06-04T11:42:11;15.00;15.00;10.00
69349;PMS5003;64554;43.452;4.934;2023-06-04T11:44:38;13.00;13.00;9.00
69349;PMS5003;64554;43.452;4.934;2023-06-04T11:47:05;14.00;12.20;8.20
69349;PMS5003;64554;43.452;4.934;2023-06-04T11:49:33;11.00;10.00;7.40
69349;PMS5003;64554;43.452;4.934;2023-06-04T11:52:01;10.00;10.00;8.00
69349;PMS5003;64554;43.452;4.934;2023-06-04T11:54:27;8.40;8.40;6.40
69349;PMS5003;64554;43.452;4.934;2023-06-04T11:56:54;13.40;12.40;8.00
69349;PMS5003;64554;43.452;4.934;2023-06-04T11:59:21;12.00;11.00;7.00
69349;PMS5003;64554;43.452;4.934;2023-06-04T12:01:47;10.00;9.00;7.00
69349;PMS5003;64554;43.452;4.934;2023-06-04T12:04:18;10.00;10.00;7.00
69349;PMS5003;64554;43.452;4.934;2023-06-04T12:06:51;10.00;10.00;6.33
69349;PMS5003;64554;43.452;4.934;2023-06-04T12:09:22;18.50;16.25;8.25
69349;PMS5003;64554;43.452;4.934;2023-06-04T12:11:49;10.60;9.60;7.60
69349;PMS5003;64554;43.452;4.934;2023-06-04T12:14:16;7.40;7.40;5.40
69349;PMS5003;64554;43.452;4.934;2023-06-04T12:17:00;10.80;10.80;7.40
69349;PMS5003;64554;43.452;4.934;2023-06-04T12:19:27;9.50;9.50;6.50
69349;PMS5003;64554;43.452;4.934;2023-06-04T12:22:00;9.40;9.40;7.20
69349;PMS5003;64554;43.452;4.934;2023-06-04T12:24:28;13.00;13.00;6.75
69349;PMS5003;64554;43.452;4.934;2023-06-04T12:27:04;13.00;12.00;8.80
69349;PMS5003;64554;43.452;4.934;2023-06-04T12:29:32;11.40;9.80;7.20
69349;PMS5003;64554;43.452;4.934;2023-06-04T12:32:08;8.75;8.75;6.75
69349;PMS5003;64554;43.452;4.934;2023-06-04T12:34:38;10.80;10.80;5.60
69349;PMS5003;64554;43.452;4.934;2023-06-04T12:37:05;9.00;9.00;6.50
69349;PMS5003;64554;43.452;4.934;2023-06-04T12:39:33;8.75;8.75;5.75
69349;PMS5003;64554;43.452;4.934;2023-06-04T12:42:00;10.40;9.60;7.40
69349;PMS5003;64554;43.452;4.934;2023-06-04T12:44:26;10.00;9.00;6.00
69349;PMS5003;64554;43.452;4.934;2023-06-04T12:46:53;10.33;10.33;7.00
69349;PMS5003;64554;43.452;4.934;2023-06-04T12:49:19;10.75;9.00;6.75
69349;PMS5003;64554;43.452;4.934;2023-06-04T12:51:46;9.25;9.25;6.50
69349;PMS5003;64554;43.452;4.934;2023-06-04T12:54:13;11.00;11.00;8.00
69349;PMS5003;64554;43.452;4.934;2023-06-04T12:56:39;10.40;10.40;7.00
69349;PMS5003;64554;43.452;4.934;2023-06-04T12:59:07;11.00;11.00;6.60
69349;PMS5003;64554;43.452;4.934;2023-06-04T13:01:33;16.00;16.00;8.25
69349;PMS5003;64554;43.452;4.934;2023-06-04T13:04:00;8.75;8.75;6.00
69349;PMS5003;64554;43.452;4.934;2023-06-04T13:06:27;11.50;11.50;9.00
69349;PMS5003;64554;43.452;4.934;2023-06-04T13:08:54;11.25;11.25;8.25
69349;PMS5003;64554;43.452;4.934;2023-06-04T13:11:21;12.40;10.00;7.00
69349;PMS5003;64554;43.452;4.934;2023-06-04T13:13:48;7.00;7.00;5.20
69349;PMS5003;64554;43.452;4.934;2023-06-04T13:16:14;10.00;10.00;7.00
69349;PMS5003;64554;43.452;4.934;2023-06-04T13:18:41;12.20;10.00;6.00
69349;PMS5003;64554;43.452;4.934;2023-06-04T13:21:08;12.20;10.20;7.00
69349;PMS5003;64554;43.452;4.934;2023-06-04T13:23:34;8.60;7.60;5.00
69349;PMS5003;64554;43.452;4.934;2023-06-04T13:26:16;10.80;10.80;6.80
69349;PMS5003;64554;43.452;4.934;2023-06-04T13:28:43;9.20;9.20;5.20
69349;PMS5003;64554;43.452;4.934;2023-06-04T13:31:09;8.20;8.20;6.20
69349;PMS5003;64554;43.452;4.934;2023-06-04T13:33:36;8.60;8.40;6.00
69349;PMS5003;64554;43.452;4.934;2023-06-04T13:36:03;10.60;9.60;6.60
69349;PMS5003;64554;43.452;4.934;2023-06-04T13:38:30;11.00;10.00;7.00
69349;PMS5003;64554;43.452;4.934;2023-06-04T13:40:57;10.50;9.25;6.00
69349;PMS5003;64554;43.452;4.934;2023-06-04T13:43:23;9.75;9.00;7.00
69349;PMS5003;64554;43.452;4.934;2023-06-04T13:45:50;9.25;9.00;5.50
69349;PMS5003;64554;43.452;4.934;2023-06-04T13:48:17;9.00;7.50;5.25
69349;PMS5003;64554;43.452;4.934;2023-06-04T13:50:44;11.00;9.20;6.00
69349;PMS5003;64554;43.452;4.934;2023-06-04T13:53:10;11.00;10.00;8.00
69349;PMS5003;64554;43.452;4.934;2023-06-04T13:55:39;11.40;11.00;5.60
69349;PMS5003;64554;43.452;4.934;2023-06-04T13:58:05;8.50;8.50;6.50
69349;PMS5003;64554;43.452;4.934;2023-06-04T14:00:35;12.20;10.00;7.00
69349;PMS5003;64554;43.452;4.934;2023-06-04T14:03:01;8.60;8.60;6.40
69349;PMS5003;64554;43.452;4.934;2023-06-04T14:05:28;9.00;9.00;6.00
69349;PMS5003;64554;43.452;4.934;2023-06-04T14:07:55;11.20;11.20;7.00